sensor_id;sensor_type;location;lat;lon;timestamp;P1;durP1;ratioP1;P2;durP2;ratioP2
2998;SDS011;1509;51.964;7.628;2022-11-11T00:02:00;7.00;;;3.63;;
2998;SDS011;1509;51.964;7.628;2022-11-11T00:04:26;7.23;;;3.60;;
2998;SDS011;1509;51.964;7.628;2022-11-11T00:06:52;11.50;;;4.60;;
2998;SDS011;1509;51.964;7.628;2022-11-11T00:09:18;6.33;;;3.20;;
2998;SDS011;1509;51.964;7.628;2022-11-11T00:11:43;8.13;;;3.30;;
2998;SDS011;1509;51.964;7.628;2022-11-11T00:14:09;6.50;;;3.00;;
2998;SDS011;1509;51.964;7.628;2022-11-11T00:16:34;8.03;;;2.83;;
2998;SDS011;1509;51.964;7.628;2022-11-11T00:19:19;4.50;;;2.93;;
2998;SDS011;1509;51.964;7.628;2022-11-11T00:22:02;8.73;;;3.70;;
2998;SDS011;1509;51.964;7.628;2022-11-11T00:24:47;6.13;;;3.20;;
2998;SDS011;1509;51.964;7.628;2022-11-11T00:27:38;5.57;;;3.10;;
2998;SDS011;1509;51.964;7.628;2022-11-11T00:30:04;7.03;;;3.67;;
2998;SDS011;1509;51.964;7.628;2022-11-11T00:32:31;5.90;;;3.50;;
2998;SDS011;1509;51.964;7.628;2022-11-11T00:34:58;7.27;;;3.77;;
2998;SDS011;1509;51.964;7.628;2022-11-11T00:37:43;5.37;;;3.30;;
2998;SDS011;1509;51.964;7.628;2022-11-11T00:40:11;7.47;;;3.50;;
2998;SDS011;1509;51.964;7.628;2022-11-11T00:42:37;3.67;;;3.10;;
2998;SDS011;1509;51.964;7.628;2022-11-11T00:45:03;10.40;;;3.63;;
2998;SDS011;1509;51.964;7.628;2022-11-11T00:47:30;7.27;;;4.93;;
2998;SDS011;1509;51.964;7.628;2022-11-11T00:50:16;5.90;;;3.80;;
2998;SDS011;1509;51.964;7.628;2022-11-11T00:53:07;6.17;;;4.10;;
2998;SDS011;1509;51.964;7.628;2022-11-11T00:55:37;6.20;;;3.10;;
2998;SDS011;1509;51.964;7.628;2022-11-11T00:58:03;7.10;;;3.87;;
2998;SDS011;1509;51.964;7.628;2022-11-11T01:00:28;3.87;;;2.70;;
2998;SDS011;1509;51.964;7.628;2022-11-11T01:02:54;7.33;;;5.10;;
2998;SDS011;1509;51.964;7.628;2022-11-11T01:05:21;8.17;;;3.60;;
2998;SDS011;1509;51.964;7.628;2022-11-11T01:07:50;5.70;;;3.23;;
2998;SDS011;1509;51.964;7.628;2022-11-11T01:10:16;7.03;;;3.90;;
2998;SDS011;1509;51.964;7.628;2022-11-11T01:13:02;4.77;;;3.00;;
2998;SDS011;1509;51.964;7.628;2022-11-11T01:15:38;7.80;;;3.50;;
2998;SDS011;1509;51.964;7.628;2022-11-11T01:18:04;5.23;;;3.57;;
2998;SDS011;1509;51.964;7.628;2022-11-11T01:20:30;11.53;;;6.20;;
2998;SDS011;1509;51.964;7.628;2022-11-11T01:22:56;9.37;;;3.80;;
2998;SDS011;1509;51.964;7.628;2022-11-11T01:25:21;7.20;;;3.83;;
2998;SDS011;1509;51.964;7.628;2022-11-11T01:27:47;5.60;;;3.60;;
2998;SDS011;1509;51.964;7.628;2022-11-11T01:30:12;5.80;;;3.50;;
2998;SDS011;1509;51.964;7.628;2022-11-11T01:32:38;8.40;;;4.13;;
2998;SDS011;1509;51.964;7.628;2022-11-11T01:35:05;7.93;;;3.77;;
2998;SDS011;1509;51.964;7.628;2022-11-11T01:37:34;7.97;;;4.23;;
2998;SDS011;1509;51.964;7.628;2022-11-11T01:40:00;5.93;;;3.20;;
2998;SDS011;1509;51.964;7.628;2022-11-11T01:42:26;5.20;;;3.30;;
2998;SDS011;1509;51.964;7.628;2022-11-11T01:44:52;5.60;;;3.60;;
2998;SDS011;1509;51.964;7.628;2022-11-11T01:47:17;6.37;;;3.37;;
2998;SDS011;1509;51.964;7.628;2022-11-11T01:52:27;7.30;;;3.60;;
2998;SDS011;1509;51.964;7.628;2022-11-11T01:55:01;5.93;;;3.10;;
2998;SDS011;1509;51.964;7.628;2022-11-11T01:58:13;6.00;;;3.73;;
2998;SDS011;1509;51.964;7.628;2022-11-11T02:00:28;6.73;;;3.20;;
2998;SDS011;1509;51.964;7.628;2022-11-11T02:02:58;5.00;;;3.60;;
2998;SDS011;1509;51.964;7.628;2022-11-11T02:05:29;4.97;;;3.70;;
2998;SDS011;1509;51.964;7.628;2022-11-11T02:08:17;5.00;;;3.10;;
2998;SDS011;1509;51.964;7.628;2022-11-11T02:10:59;5.87;;;3.40;;
2998;SDS011;1509;51.964;7.628;2022-11-11T02:13:26;10.47;;;3.87;;
2998;SDS011;1509;51.964;7.628;2022-11-11T02:16:10;8.43;;;3.57;;
2998;SDS011;1509;51.964;7.628;2022-11-11T02:18:35;6.53;;;3.80;;
2998;SDS011;1509;51.964;7.628;2022-11-11T02:21:01;7.53;;;3.87;;
2998;SDS011;1509;51.964;7.628;2022-11-11T02:23:36;6.33;;;3.23;;
2998;SDS011;1509;51.964;7.628;2022-11-11T02:26:09;6.40;;;3.73;;
2998;SDS011;1509;51.964;7.628;2022-11-11T02:28:37;6.50;;;3.93;;
2998;SDS011;1509;51.964;7.628;2022-11-11T02:31:03;5.07;;;3.90;;
2998;SDS011;1509;51.964;7.628;2022-11-11T02:33:29;5.03;;;3.73;;
2998;SDS011;1509;51.964;7.628;2022-11-11T02:35:55;5.07;;;3.10;;
2998;SDS011;1509;51.964;7.628;2022-11-11T02:38:23;10.53;;;3.67;;
2998;SDS011;1509;51.964;7.628;2022-11-11T02:40:50;5.70;;;3.73;;
2998;SDS011;1509;51.964;7.628;2022-11-11T02:43:34;6.23;;;3.80;;
2998;SDS011;1509;51.964;7.628;2022-11-11T02:46:00;8.43;;;4.03;;
2998;SDS011;1509;51.964;7.628;2022-11-11T02:48:27;8.30;;;5.10;;
2998;SDS011;1509;51.964;7.628;2022-11-11T02:50:53;11.80;;;6.27;;
2998;SDS011;1509;51.964;7.628;2022-11-11T02:53:18;13.87;;;5.23;;
2998;SDS011;1509;51.964;7.628;2022-11-11T02:55:44;7.70;;;3.83;;
2998;SDS011;1509;51.964;7.628;2022-11-11T02:58:10;8.40;;;3.30;;
2998;SDS011;1509;51.964;7.628;2022-11-11T03:00:36;5.90;;;3.80;;
2998;SDS011;1509;51.964;7.628;2022-11-11T03:03:02;10.77;;;4.03;;
2998;SDS011;1509;51.964;7.628;2022-11-11T03:05:28;6.90;;;3.47;;
2998;SDS011;1509;51.964;7.628;2022-11-11T03:07:53;5.10;;;3.67;;
2998;SDS011;1509;51.964;7.628;2022-11-11T03:10:19;7.87;;;4.40;;
2998;SDS011;1509;51.964;7.628;2022-11-11T03:12:47;9.50;;;3.83;;
2998;SDS011;1509;51.964;7.628;2022-11-11T03:15:13;8.43;;;4.40;;
2998;SDS011;1509;51.964;7.628;2022-11-11T03:17:38;10.33;;;5.20;;
2998;SDS011;1509;51.964;7.628;2022-11-11T03:20:11;6.87;;;4.20;;
2998;SDS011;1509;51.964;7.628;2022-11-11T03:25:27;9.77;;;4.93;;
2998;SDS011;1509;51.964;7.628;2022-11-11T03:28:12;8.00;;;4.33;;
2998;SDS011;1509;51.964;7.628;2022-11-11T03:30:41;4.47;;;3.37;;
2998;SDS011;1509;51.964;7.628;2022-11-11T03:33:08;6.53;;;4.20;;
2998;SDS011;1509;51.964;7.628;2022-11-11T03:35:35;5.83;;;3.90;;
2998;SDS011;1509;51.964;7.628;2022-11-11T03:38:01;7.37;;;4.30;;
2998;SDS011;1509;51.964;7.628;2022-11-11T03:40:44;9.73;;;4.53;;
2998;SDS011;1509;51.964;7.628;2022-11-11T03:43:14;9.20;;;4.00;;
2998;SDS011;1509;51.964;7.628;2022-11-11T03:45:42;7.20;;;5.00;;
2998;SDS011;1509;51.964;7.628;2022-11-11T03:48:08;7.60;;;4.47;;
2998;SDS011;1509;51.964;7.628;2022-11-11T03:50:34;9.80;;;4.93;;
2998;SDS011;1509;51.964;7.628;2022-11-11T03:53:00;7.03;;;4.20;;
2998;SDS011;1509;51.964;7.628;2022-11-11T03:55:26;9.30;;;4.10;;
2998;SDS011;1509;51.964;7.628;2022-11-11T03:57:52;8.67;;;5.07;;
2998;SDS011;1509;51.964;7.628;2022-11-11T04:00:19;13.00;;;4.20;;
2998;SDS011;1509;51.964;7.628;2022-11-11T04:02:49;6.80;;;4.90;;
2998;SDS011;1509;51.964;7.628;2022-11-11T04:05:33;8.03;;;4.93;;
2998;SDS011;1509;51.964;7.628;2022-11-11T04:08:18;7.83;;;4.63;;
2998;SDS011;1509;51.964;7.628;2022-11-11T04:11:05;8.87;;;4.87;;
2998;SDS011;1509;51.964;7.628;2022-11-11T04:13:33;6.50;;;4.47;;
2998;SDS011;1509;51.964;7.628;2022-11-11T04:16:18;9.07;;;4.97;;
2998;SDS011;1509;51.964;7.628;2022-11-11T04:18:44;11.20;;;5.10;;
2998;SDS011;1509;51.964;7.628;2022-11-11T04:21:28;10.20;;;4.97;;
2998;SDS011;1509;51.964;7.628;2022-11-11T04:24:13;14.07;;;6.17;;
2998;SDS011;1509;51.964;7.628;2022-11-11T04:27:00;7.57;;;5.00;;
2998;SDS011;1509;51.964;7.628;2022-11-11T04:29:27;9.17;;;5.00;;
2998;SDS011;1509;51.964;7.628;2022-11-11T04:31:59;7.40;;;4.30;;
2998;SDS011;1509;51.964;7.628;2022-11-11T04:34:45;8.50;;;4.97;;
2998;SDS011;1509;51.964;7.628;2022-11-11T04:37:15;8.37;;;5.40;;
2998;SDS011;1509;51.964;7.628;2022-11-11T04:39:42;11.00;;;6.03;;
2998;SDS011;1509;51.964;7.628;2022-11-11T04:42:26;9.93;;;6.03;;
2998;SDS011;1509;51.964;7.628;2022-11-11T04:44:53;9.07;;;5.40;;
2998;SDS011;1509;51.964;7.628;2022-11-11T04:47:37;11.67;;;5.03;;
2998;SDS011;1509;51.964;7.628;2022-11-11T04:50:03;10.27;;;6.20;;
2998;SDS011;1509;51.964;7.628;2022-11-11T04:52:29;12.93;;;6.33;;
2998;SDS011;1509;51.964;7.628;2022-11-11T04:54:56;12.73;;;5.93;;
2998;SDS011;1509;51.964;7.628;2022-11-11T04:57:41;10.33;;;5.80;;
2998;SDS011;1509;51.964;7.628;2022-11-11T05:00:09;11.10;;;5.53;;
2998;SDS011;1509;51.964;7.628;2022-11-11T05:02:40;10.53;;;5.43;;
2998;SDS011;1509;51.964;7.628;2022-11-11T05:05:28;8.07;;;4.87;;
2998;SDS011;1509;51.964;7.628;2022-11-11T05:08:13;9.23;;;6.43;;
2998;SDS011;1509;51.964;7.628;2022-11-11T05:11:00;14.07;;;6.03;;
2998;SDS011;1509;51.964;7.628;2022-11-11T05:13:25;12.27;;;6.50;;
2998;SDS011;1509;51.964;7.628;2022-11-11T05:16:13;12.03;;;5.37;;
2998;SDS011;1509;51.964;7.628;2022-11-11T05:19:01;10.20;;;5.73;;
2998;SDS011;1509;51.964;7.628;2022-11-11T05:21:45;8.93;;;6.37;;
2998;SDS011;1509;51.964;7.628;2022-11-11T05:24:11;8.23;;;5.37;;
2998;SDS011;1509;51.964;7.628;2022-11-11T05:26:55;9.10;;;6.10;;
2998;SDS011;1509;51.964;7.628;2022-11-11T05:29:20;13.83;;;5.77;;
2998;SDS011;1509;51.964;7.628;2022-11-11T05:31:46;9.03;;;5.90;;
2998;SDS011;1509;51.964;7.628;2022-11-11T05:34:11;11.83;;;5.50;;
2998;SDS011;1509;51.964;7.628;2022-11-11T05:36:37;9.10;;;5.97;;
2998;SDS011;1509;51.964;7.628;2022-11-11T05:39:03;11.87;;;5.60;;
2998;SDS011;1509;51.964;7.628;2022-11-11T05:41:31;10.30;;;5.27;;
2998;SDS011;1509;51.964;7.628;2022-11-11T05:43:56;8.53;;;5.57;;
2998;SDS011;1509;51.964;7.628;2022-11-11T05:46:22;9.17;;;4.80;;
2998;SDS011;1509;51.964;7.628;2022-11-11T05:48:47;7.57;;;5.60;;
2998;SDS011;1509;51.964;7.628;2022-11-11T05:51:31;8.53;;;5.03;;
2998;SDS011;1509;51.964;7.628;2022-11-11T05:53:57;9.57;;;5.20;;
2998;SDS011;1509;51.964;7.628;2022-11-11T05:56:23;10.40;;;6.50;;
2998;SDS011;1509;51.964;7.628;2022-11-11T05:58:48;9.07;;;4.97;;
2998;SDS011;1509;51.964;7.628;2022-11-11T06:01:14;8.77;;;5.30;;
2998;SDS011;1509;51.964;7.628;2022-11-11T06:03:39;11.00;;;5.80;;
2998;SDS011;1509;51.964;7.628;2022-11-11T06:06:05;12.27;;;5.47;;
2998;SDS011;1509;51.964;7.628;2022-11-11T06:08:31;14.50;;;5.33;;
2998;SDS011;1509;51.964;7.628;2022-11-11T06:10:56;13.10;;;4.30;;
2998;SDS011;1509;51.964;7.628;2022-11-11T06:13:22;6.87;;;4.20;;
2998;SDS011;1509;51.964;7.628;2022-11-11T06:15:48;8.03;;;5.10;;
2998;SDS011;1509;51.964;7.628;2022-11-11T06:18:13;9.83;;;5.00;;
2998;SDS011;1509;51.964;7.628;2022-11-11T06:20:39;8.03;;;4.93;;
2998;SDS011;1509;51.964;7.628;2022-11-11T06:23:05;8.63;;;4.30;;
2998;SDS011;1509;51.964;7.628;2022-11-11T06:25:31;13.50;;;6.03;;
2998;SDS011;1509;51.964;7.628;2022-11-11T06:28:17;10.00;;;5.30;;
2998;SDS011;1509;51.964;7.628;2022-11-11T06:30:43;10.07;;;5.47;;
2998;SDS011;1509;51.964;7.628;2022-11-11T06:33:09;7.40;;;4.23;;
2998;SDS011;1509;51.964;7.628;2022-11-11T06:35:36;7.40;;;4.70;;
2998;SDS011;1509;51.964;7.628;2022-11-11T06:38:04;11.33;;;4.70;;
2998;SDS011;1509;51.964;7.628;2022-11-11T06:40:30;7.87;;;4.33;;
2998;SDS011;1509;51.964;7.628;2022-11-11T06:42:59;8.53;;;4.90;;
2998;SDS011;1509;51.964;7.628;2022-11-11T06:45:25;7.50;;;4.53;;
2998;SDS011;1509;51.964;7.628;2022-11-11T06:47:53;7.23;;;4.47;;
2998;SDS011;1509;51.964;7.628;2022-11-11T06:50:19;15.63;;;6.20;;
2998;SDS011;1509;51.964;7.628;2022-11-11T06:52:45;7.03;;;4.20;;
2998;SDS011;1509;51.964;7.628;2022-11-11T06:55:11;10.83;;;4.80;;
2998;SDS011;1509;51.964;7.628;2022-11-11T06:57:37;12.80;;;5.17;;
2998;SDS011;1509;51.964;7.628;2022-11-11T07:00:03;10.03;;;5.30;;
2998;SDS011;1509;51.964;7.628;2022-11-11T07:02:30;8.90;;;4.53;;
2998;SDS011;1509;51.964;7.628;2022-11-11T07:04:55;10.60;;;6.30;;
2998;SDS011;1509;51.964;7.628;2022-11-11T07:07:21;11.03;;;4.63;;
2998;SDS011;1509;51.964;7.628;2022-11-11T07:09:47;8.10;;;4.40;;
2998;SDS011;1509;51.964;7.628;2022-11-11T07:12:12;8.00;;;5.13;;
2998;SDS011;1509;51.964;7.628;2022-11-11T07:14:38;4.60;;;4.00;;
2998;SDS011;1509;51.964;7.628;2022-11-11T07:17:04;7.97;;;4.30;;
2998;SDS011;1509;51.964;7.628;2022-11-11T07:19:29;9.90;;;4.73;;
2998;SDS011;1509;51.964;7.628;2022-11-11T07:21:55;6.90;;;4.63;;
2998;SDS011;1509;51.964;7.628;2022-11-11T07:24:21;7.07;;;4.20;;
2998;SDS011;1509;51.964;7.628;2022-11-11T07:26:46;11.60;;;4.23;;
2998;SDS011;1509;51.964;7.628;2022-11-11T07:29:12;12.27;;;4.77;;
2998;SDS011;1509;51.964;7.628;2022-11-11T07:31:39;5.07;;;3.63;;
2998;SDS011;1509;51.964;7.628;2022-11-11T07:34:05;5.13;;;3.50;;
2998;SDS011;1509;51.964;7.628;2022-11-11T07:36:31;6.40;;;3.77;;
2998;SDS011;1509;51.964;7.628;2022-11-11T07:38:57;7.33;;;4.20;;
2998;SDS011;1509;51.964;7.628;2022-11-11T07:41:23;6.20;;;3.80;;
2998;SDS011;1509;51.964;7.628;2022-11-11T07:43:52;5.47;;;4.03;;
2998;SDS011;1509;51.964;7.628;2022-11-11T07:46:17;5.90;;;4.10;;
2998;SDS011;1509;51.964;7.628;2022-11-11T07:48:43;5.60;;;4.80;;
2998;SDS011;1509;51.964;7.628;2022-11-11T07:51:09;9.13;;;3.60;;
2998;SDS011;1509;51.964;7.628;2022-11-11T07:53:34;4.93;;;3.27;;
2998;SDS011;1509;51.964;7.628;2022-11-11T07:56:00;5.77;;;4.30;;
2998;SDS011;1509;51.964;7.628;2022-11-11T07:58:25;6.33;;;2.90;;
2998;SDS011;1509;51.964;7.628;2022-11-11T08:00:51;6.60;;;3.93;;
2998;SDS011;1509;51.964;7.628;2022-11-11T08:03:17;9.90;;;4.17;;
2998;SDS011;1509;51.964;7.628;2022-11-11T08:05:42;7.20;;;3.50;;
2998;SDS011;1509;51.964;7.628;2022-11-11T08:08:09;7.77;;;4.20;;
2998;SDS011;1509;51.964;7.628;2022-11-11T08:10:35;5.70;;;3.30;;
2998;SDS011;1509;51.964;7.628;2022-11-11T08:13:01;6.10;;;3.37;;
2998;SDS011;1509;51.964;7.628;2022-11-11T08:15:45;7.07;;;3.10;;
2998;SDS011;1509;51.964;7.628;2022-11-11T08:18:11;6.70;;;3.67;;
2998;SDS011;1509;51.964;7.628;2022-11-11T08:20:37;6.13;;;3.33;;
2998;SDS011;1509;51.964;7.628;2022-11-11T08:23:03;6.20;;;3.43;;
2998;SDS011;1509;51.964;7.628;2022-11-11T08:25:29;4.03;;;3.00;;
2998;SDS011;1509;51.964;7.628;2022-11-11T08:27:59;4.47;;;2.83;;
2998;SDS011;1509;51.964;7.628;2022-11-11T08:30:26;4.50;;;3.33;;
2998;SDS011;1509;51.964;7.628;2022-11-11T08:33:02;4.80;;;4.20;;
2998;SDS011;1509;51.964;7.628;2022-11-11T08:35:30;7.17;;;2.70;;
2998;SDS011;1509;51.964;7.628;2022-11-11T08:37:59;6.83;;;3.40;;
2998;SDS011;1509;51.964;7.628;2022-11-11T08:40:26;5.67;;;3.10;;
2998;SDS011;1509;51.964;7.628;2022-11-11T08:42:56;5.10;;;3.03;;
2998;SDS011;1509;51.964;7.628;2022-11-11T08:45:23;5.50;;;3.30;;
2998;SDS011;1509;51.964;7.628;2022-11-11T08:47:49;5.83;;;3.37;;
2998;SDS011;1509;51.964;7.628;2022-11-11T08:50:15;4.23;;;3.40;;
2998;SDS011;1509;51.964;7.628;2022-11-11T08:52:45;6.63;;;3.33;;
2998;SDS011;1509;51.964;7.628;2022-11-11T08:55:12;5.90;;;3.10;;
2998;SDS011;1509;51.964;7.628;2022-11-11T08:57:37;13.67;;;2.97;;
2998;SDS011;1509;51.964;7.628;2022-11-11T09:00:03;6.20;;;3.77;;
2998;SDS011;1509;51.964;7.628;2022-11-11T09:02:30;9.10;;;3.73;;
2998;SDS011;1509;51.964;7.628;2022-11-11T09:04:56;7.27;;;3.80;;
2998;SDS011;1509;51.964;7.628;2022-11-11T09:07:21;5.60;;;3.03;;
2998;SDS011;1509;51.964;7.628;2022-11-11T09:09:47;8.40;;;3.27;;
2998;SDS011;1509;51.964;7.628;2022-11-11T09:12:12;8.00;;;3.43;;
2998;SDS011;1509;51.964;7.628;2022-11-11T09:14:38;6.97;;;3.90;;
2998;SDS011;1509;51.964;7.628;2022-11-11T09:17:04;5.87;;;3.40;;
2998;SDS011;1509;51.964;7.628;2022-11-11T09:19:30;6.50;;;3.70;;
2998;SDS011;1509;51.964;7.628;2022-11-11T09:21:56;9.50;;;4.57;;
2998;SDS011;1509;51.964;7.628;2022-11-11T09:24:22;5.53;;;3.00;;
2998;SDS011;1509;51.964;7.628;2022-11-11T09:26:47;5.23;;;3.47;;
2998;SDS011;1509;51.964;7.628;2022-11-11T09:29:14;6.30;;;3.40;;
2998;SDS011;1509;51.964;7.628;2022-11-11T09:31:40;5.70;;;3.47;;
2998;SDS011;1509;51.964;7.628;2022-11-11T09:34:05;5.83;;;3.00;;
2998;SDS011;1509;51.964;7.628;2022-11-11T09:36:31;5.90;;;2.60;;
2998;SDS011;1509;51.964;7.628;2022-11-11T09:38:57;6.80;;;3.00;;
2998;SDS011;1509;51.964;7.628;2022-11-11T09:44:08;4.83;;;3.17;;
2998;SDS011;1509;51.964;7.628;2022-11-11T09:47:00;6.17;;;2.87;;
2998;SDS011;1509;51.964;7.628;2022-11-11T09:52:13;7.37;;;2.97;;
2998;SDS011;1509;51.964;7.628;2022-11-11T09:54:49;5.70;;;2.73;;
2998;SDS011;1509;51.964;7.628;2022-11-11T09:57:35;6.03;;;3.00;;
2998;SDS011;1509;51.964;7.628;2022-11-11T10:00:13;3.87;;;2.80;;
2998;SDS011;1509;51.964;7.628;2022-11-11T10:02:53;4.73;;;2.40;;
2998;SDS011;1509;51.964;7.628;2022-11-11T10:07:52;7.77;;;2.80;;
2998;SDS011;1509;51.964;7.628;2022-11-11T10:13:11;5.50;;;2.30;;
2998;SDS011;1509;51.964;7.628;2022-11-11T10:16:00;4.50;;;2.47;;
2998;SDS011;1509;51.964;7.628;2022-11-11T10:18:41;7.97;;;2.47;;
2998;SDS011;1509;51.964;7.628;2022-11-11T10:21:25;3.57;;;2.10;;
2998;SDS011;1509;51.964;7.628;2022-11-11T10:24:03;3.10;;;2.00;;
2998;SDS011;1509;51.964;7.628;2022-11-11T10:26:40;3.40;;;2.27;;
2998;SDS011;1509;51.964;7.628;2022-11-11T10:29:17;6.07;;;2.40;;
2998;SDS011;1509;51.964;7.628;2022-11-11T10:34:45;2.90;;;2.13;;
2998;SDS011;1509;51.964;7.628;2022-11-11T10:37:14;5.10;;;2.50;;
2998;SDS011;1509;51.964;7.628;2022-11-11T10:42:31;4.03;;;2.30;;
2998;SDS011;1509;51.964;7.628;2022-11-11T10:45:00;4.30;;;2.37;;
2998;SDS011;1509;51.964;7.628;2022-11-11T10:47:37;10.57;;;8.93;;
2998;SDS011;1509;51.964;7.628;2022-11-11T10:50:43;4.27;;;2.27;;
2998;SDS011;1509;51.964;7.628;2022-11-11T10:53:11;4.53;;;2.87;;
2998;SDS011;1509;51.964;7.628;2022-11-11T10:58:21;3.00;;;2.37;;
2998;SDS011;1509;51.964;7.628;2022-11-11T11:00:54;3.57;;;1.97;;
2998;SDS011;1509;51.964;7.628;2022-11-11T11:03:34;3.60;;;1.70;;
2998;SDS011;1509;51.964;7.628;2022-11-11T11:06:17;7.20;;;2.13;;
2998;SDS011;1509;51.964;7.628;2022-11-11T11:08:49;5.00;;;1.90;;
2998;SDS011;1509;51.964;7.628;2022-11-11T11:14:33;5.90;;;2.10;;
2998;SDS011;1509;51.964;7.628;2022-11-11T11:17:07;2.60;;;1.70;;
2998;SDS011;1509;51.964;7.628;2022-11-11T11:19:39;3.70;;;2.83;;
2998;SDS011;1509;51.964;7.628;2022-11-11T11:22:05;4.53;;;2.10;;
2998;SDS011;1509;51.964;7.628;2022-11-11T11:24:34;3.20;;;1.93;;
2998;SDS011;1509;51.964;7.628;2022-11-11T11:27:04;4.57;;;1.90;;
2998;SDS011;1509;51.964;7.628;2022-11-11T11:29:35;4.23;;;1.70;;
2998;SDS011;1509;51.964;7.628;2022-11-11T11:32:17;4.03;;;1.77;;
2998;SDS011;1509;51.964;7.628;2022-11-11T11:34:49;3.37;;;1.97;;
2998;SDS011;1509;51.964;7.628;2022-11-11T11:37:17;6.33;;;1.60;;
2998;SDS011;1509;51.964;7.628;2022-11-11T11:39:45;3.80;;;2.50;;
2998;SDS011;1509;51.964;7.628;2022-11-11T11:42:31;3.13;;;1.60;;
2998;SDS011;1509;51.964;7.628;2022-11-11T11:50:23;4.03;;;1.67;;
2998;SDS011;1509;51.964;7.628;2022-11-11T11:55:35;3.67;;;1.80;;
2998;SDS011;1509;51.964;7.628;2022-11-11T12:00:44;3.27;;;1.80;;
2998;SDS011;1509;51.964;7.628;2022-11-11T12:03:26;4.13;;;1.40;;
2998;SDS011;1509;51.964;7.628;2022-11-11T12:14:49;4.47;;;1.90;;
2998;SDS011;1509;51.964;7.628;2022-11-11T12:22:28;4.07;;;2.00;;
2998;SDS011;1509;51.964;7.628;2022-11-11T12:30:51;3.10;;;1.33;;
2998;SDS011;1509;51.964;7.628;2022-11-11T12:36:57;2.67;;;1.50;;
2998;SDS011;1509;51.964;7.628;2022-11-11T12:40:06;5.27;;;1.37;;
2998;SDS011;1509;51.964;7.628;2022-11-11T12:43:06;2.57;;;1.50;;
2998;SDS011;1509;51.964;7.628;2022-11-11T12:46:03;2.60;;;1.40;;
2998;SDS011;1509;51.964;7.628;2022-11-11T12:48:50;3.13;;;1.70;;
2998;SDS011;1509;51.964;7.628;2022-11-11T12:51:44;2.23;;;1.40;;
2998;SDS011;1509;51.964;7.628;2022-11-11T12:54:28;3.80;;;2.03;;
2998;SDS011;1509;51.964;7.628;2022-11-11T13:03:06;2.77;;;1.40;;
2998;SDS011;1509;51.964;7.628;2022-11-11T13:05:28;2.03;;;1.30;;
2998;SDS011;1509;51.964;7.628;2022-11-11T13:13:08;3.87;;;1.77;;
2998;SDS011;1509;51.964;7.628;2022-11-11T13:15:53;7.33;;;1.87;;
2998;SDS011;1509;51.964;7.628;2022-11-11T13:21:21;4.00;;;1.70;;
2998;SDS011;1509;51.964;7.628;2022-11-11T13:24:09;2.70;;;1.43;;
2998;SDS011;1509;51.964;7.628;2022-11-11T13:26:38;4.87;;;1.50;;
2998;SDS011;1509;51.964;7.628;2022-11-11T13:29:43;4.80;;;1.80;;
2998;SDS011;1509;51.964;7.628;2022-11-11T13:32:39;4.27;;;1.73;;
2998;SDS011;1509;51.964;7.628;2022-11-11T13:37:59;8.53;;;1.70;;
2998;SDS011;1509;51.964;7.628;2022-11-11T13:43:03;4.33;;;1.77;;
2998;SDS011;1509;51.964;7.628;2022-11-11T13:45:40;3.73;;;1.80;;
2998;SDS011;1509;51.964;7.628;2022-11-11T13:48:15;2.77;;;1.60;;
2998;SDS011;1509;51.964;7.628;2022-11-11T13:50:52;3.13;;;1.57;;
2998;SDS011;1509;51.964;7.628;2022-11-11T13:53:34;5.00;;;1.57;;
2998;SDS011;1509;51.964;7.628;2022-11-11T13:56:01;6.20;;;2.17;;
2998;SDS011;1509;51.964;7.628;2022-11-11T13:58:32;4.83;;;1.50;;
2998;SDS011;1509;51.964;7.628;2022-11-11T14:01:05;4.63;;;2.47;;
2998;SDS011;1509;51.964;7.628;2022-11-11T14:03:33;3.27;;;1.80;;
2998;SDS011;1509;51.964;7.628;2022-11-11T14:18:59;2.83;;;1.57;;
2998;SDS011;1509;51.964;7.628;2022-11-11T14:21:45;2.77;;;1.87;;
2998;SDS011;1509;51.964;7.628;2022-11-11T14:24:22;2.90;;;1.80;;
2998;SDS011;1509;51.964;7.628;2022-11-11T14:29:56;4.43;;;2.63;;
2998;SDS011;1509;51.964;7.628;2022-11-11T14:38:03;3.00;;;2.10;;
2998;SDS011;1509;51.964;7.628;2022-11-11T14:40:43;7.50;;;1.90;;
2998;SDS011;1509;51.964;7.628;2022-11-11T14:45:59;4.60;;;2.40;;
2998;SDS011;1509;51.964;7.628;2022-11-11T14:48:51;2.97;;;2.33;;
2998;SDS011;1509;51.964;7.628;2022-11-11T15:00:16;3.30;;;2.47;;
2998;SDS011;1509;51.964;7.628;2022-11-11T15:03:02;4.17;;;2.63;;
2998;SDS011;1509;51.964;7.628;2022-11-11T15:05:48;3.70;;;2.20;;
2998;SDS011;1509;51.964;7.628;2022-11-11T15:08:24;4.27;;;2.03;;
2998;SDS011;1509;51.964;7.628;2022-11-11T15:19:23;3.53;;;1.97;;
2998;SDS011;1509;51.964;7.628;2022-11-11T15:27:52;7.50;;;1.70;;
2998;SDS011;1509;51.964;7.628;2022-11-11T15:30:36;3.73;;;1.63;;
2998;SDS011;1509;51.964;7.628;2022-11-11T15:35:50;3.80;;;2.00;;
2998;SDS011;1509;51.964;7.628;2022-11-11T15:38:37;4.73;;;2.13;;
2998;SDS011;1509;51.964;7.628;2022-11-11T15:41:03;4.33;;;2.50;;
2998;SDS011;1509;51.964;7.628;2022-11-11T15:43:30;5.80;;;1.97;;
2998;SDS011;1509;51.964;7.628;2022-11-11T15:46:01;3.60;;;1.70;;
2998;SDS011;1509;51.964;7.628;2022-11-11T15:48:29;4.83;;;2.60;;
2998;SDS011;1509;51.964;7.628;2022-11-11T15:51:45;4.90;;;2.00;;
2998;SDS011;1509;51.964;7.628;2022-11-11T15:53:46;4.40;;;2.10;;
2998;SDS011;1509;51.964;7.628;2022-11-11T15:56:29;2.67;;;1.60;;
2998;SDS011;1509;51.964;7.628;2022-11-11T15:58:56;4.00;;;2.17;;
2998;SDS011;1509;51.964;7.628;2022-11-11T16:01:25;3.50;;;2.13;;
2998;SDS011;1509;51.964;7.628;2022-11-11T16:03:53;2.90;;;2.00;;
2998;SDS011;1509;51.964;7.628;2022-11-11T16:06:19;4.93;;;2.33;;
2998;SDS011;1509;51.964;7.628;2022-11-11T16:08:46;6.43;;;2.03;;
2998;SDS011;1509;51.964;7.628;2022-11-11T16:11:15;3.87;;;1.80;;
2998;SDS011;1509;51.964;7.628;2022-11-11T16:13:56;3.20;;;1.80;;
2998;SDS011;1509;51.964;7.628;2022-11-11T16:16:27;5.40;;;2.10;;
2998;SDS011;1509;51.964;7.628;2022-11-11T16:18:57;5.10;;;2.37;;
2998;SDS011;1509;51.964;7.628;2022-11-11T16:24:01;4.80;;;2.40;;
2998;SDS011;1509;51.964;7.628;2022-11-11T16:26:27;4.23;;;2.13;;
2998;SDS011;1509;51.964;7.628;2022-11-11T16:28:57;6.63;;;2.20;;
2998;SDS011;1509;51.964;7.628;2022-11-11T16:33:58;4.20;;;2.50;;
2998;SDS011;1509;51.964;7.628;2022-11-11T16:36:24;3.80;;;2.70;;
2998;SDS011;1509;51.964;7.628;2022-11-11T16:38:49;4.17;;;2.37;;
2998;SDS011;1509;51.964;7.628;2022-11-11T16:41:48;3.70;;;2.23;;
2998;SDS011;1509;51.964;7.628;2022-11-11T16:44:22;3.50;;;2.40;;
2998;SDS011;1509;51.964;7.628;2022-11-11T16:46:52;3.30;;;2.30;;
2998;SDS011;1509;51.964;7.628;2022-11-11T16:51:49;4.57;;;2.50;;
2998;SDS011;1509;51.964;7.628;2022-11-11T16:54:19;8.40;;;2.90;;
2998;SDS011;1509;51.964;7.628;2022-11-11T16:56:50;4.60;;;3.07;;
2998;SDS011;1509;51.964;7.628;2022-11-11T16:59:39;5.13;;;2.50;;
2998;SDS011;1509;51.964;7.628;2022-11-11T17:02:18;4.40;;;3.00;;
2998;SDS011;1509;51.964;7.628;2022-11-11T17:04:46;6.70;;;3.87;;
2998;SDS011;1509;51.964;7.628;2022-11-11T17:07:26;5.23;;;2.13;;
2998;SDS011;1509;51.964;7.628;2022-11-11T17:09:51;12.10;;;4.37;;
2998;SDS011;1509;51.964;7.628;2022-11-11T17:12:17;4.83;;;2.20;;
2998;SDS011;1509;51.964;7.628;2022-11-11T17:14:55;6.77;;;2.60;;
2998;SDS011;1509;51.964;7.628;2022-11-11T17:17:20;5.07;;;2.70;;
2998;SDS011;1509;51.964;7.628;2022-11-11T17:19:46;5.00;;;3.20;;
2998;SDS011;1509;51.964;7.628;2022-11-11T17:22:12;4.00;;;2.40;;
2998;SDS011;1509;51.964;7.628;2022-11-11T17:24:37;6.93;;;3.17;;
2998;SDS011;1509;51.964;7.628;2022-11-11T17:27:04;5.47;;;3.30;;
2998;SDS011;1509;51.964;7.628;2022-11-11T17:29:29;4.40;;;2.60;;
2998;SDS011;1509;51.964;7.628;2022-11-11T17:31:55;6.00;;;3.30;;
2998;SDS011;1509;51.964;7.628;2022-11-11T17:34:21;3.70;;;3.30;;
2998;SDS011;1509;51.964;7.628;2022-11-11T17:36:46;7.37;;;4.70;;
2998;SDS011;1509;51.964;7.628;2022-11-11T17:39:12;9.20;;;4.77;;
2998;SDS011;1509;51.964;7.628;2022-11-11T17:41:38;5.77;;;4.30;;
2998;SDS011;1509;51.964;7.628;2022-11-11T17:44:03;8.23;;;4.43;;
2998;SDS011;1509;51.964;7.628;2022-11-11T17:46:32;10.50;;;5.10;;
2998;SDS011;1509;51.964;7.628;2022-11-11T17:48:57;8.40;;;4.93;;
2998;SDS011;1509;51.964;7.628;2022-11-11T17:51:23;6.77;;;4.90;;
2998;SDS011;1509;51.964;7.628;2022-11-11T17:53:49;7.37;;;5.10;;
2998;SDS011;1509;51.964;7.628;2022-11-11T17:56:16;14.67;;;7.77;;
2998;SDS011;1509;51.964;7.628;2022-11-11T17:58:42;10.80;;;6.27;;